createdAt,value
2017-10-22T00:00:48.064Z,83.89
2017-10-22T00:03:13.898Z,83.96
2017-10-22T00:05:39.694Z,83.59
2017-10-22T00:08:05.513Z,83.67
2017-10-22T00:10:31.368Z,83.73
2017-10-22T00:12:57.174Z,83.79
2017-10-22T00:15:23.010Z,83.73
2017-10-22T00:17:48.809Z,84.11
2017-10-22T00:20:14.665Z,84.39
2017-10-22T00:22:40.499Z,84.35
2017-10-22T00:25:06.306Z,84.46
2017-10-22T00:27:32.188Z,84.38
2017-10-22T00:29:57.992Z,84.29
2017-10-22T00:32:23.834Z,84.22
2017-10-22T00:34:49.644Z,84.18
2017-10-22T00:37:15.457Z,83.77
2017-10-22T00:39:41.963Z,84.17
2017-10-22T00:42:07.808Z,83.92
2017-10-22T00:44:33.690Z,84.04
2017-10-22T00:46:59.501Z,84.12
2017-10-22T00:49:25.337Z,84.06
2017-10-22T00:51:51.175Z,83.92
2017-10-22T00:54:16.992Z,84.09
2017-10-22T00:56:42.968Z,84.02
2017-10-22T00:59:08.810Z,84.10
2017-10-22T01:01:34.626Z,84.17
2017-10-22T01:04:00.463Z,83.85
2017-10-22T01:06:26.309Z,83.69
2017-10-22T01:08:52.139Z,83.98
2017-10-22T01:11:18.057Z,84.04
2017-10-22T01:13:43.940Z,84.25
2017-10-22T01:16:09.751Z,84.38
2017-10-22T01:18:35.579Z,84.43
2017-10-22T01:21:01.428Z,84.72
2017-10-22T01:23:27.445Z,84.67
2017-10-22T01:25:53.293Z,84.72
2017-10-22T01:28:19.134Z,84.78
2017-10-22T01:30:44.994Z,84.71
2017-10-22T01:33:10.841Z,84.63
2017-10-22T01:35:36.721Z,84.29
2017-10-22T01:38:02.561Z,84.64
2017-10-22T01:40:28.417Z,84.36
2017-10-22T01:42:54.243Z,84.42
2017-10-22T01:45:20.082Z,84.33
2017-10-22T01:47:45.904Z,84.29
2017-10-22T01:50:11.762Z,84.24
2017-10-22T01:52:37.928Z,84.45
2017-10-22T01:55:04.065Z,84.39
2017-10-22T01:57:29.896Z,84.10
2017-10-22T01:59:55.713Z,83.79
2017-10-22T02:02:21.573Z,83.43
2017-10-22T02:04:47.391Z,83.37
2017-10-22T02:07:13.257Z,83.08
2017-10-22T02:09:39.111Z,82.93
2017-10-22T02:12:04.970Z,82.62
2017-10-22T02:14:30.833Z,82.31
2017-10-22T02:16:56.669Z,82.69
2017-10-22T02:19:23.817Z,82.25
2017-10-22T02:21:49.689Z,82.48
2017-10-22T02:24:15.539Z,82.53
2017-10-22T02:26:41.368Z,82.46
2017-10-22T02:29:07.192Z,82.51
2017-10-22T02:31:33.035Z,82.43
2017-10-22T02:33:58.874Z,82.14
2017-10-22T02:36:24.734Z,82.17
2017-10-22T02:38:50.561Z,82.13
2017-10-22T02:41:16.405Z,82.09
2017-10-22T02:43:42.301Z,81.83
2017-10-22T02:46:08.123Z,81.82
2017-10-22T02:48:33.950Z,81.36
2017-10-22T02:50:59.785Z,81.13
2017-10-22T02:53:25.643Z,80.57
2017-10-22T02:55:51.508Z,80.25
2017-10-22T02:58:17.355Z,79.86
2017-10-22T03:00:43.190Z,79.87
2017-10-22T03:03:09.021Z,80.03
2017-10-22T03:05:34.912Z,79.79
2017-10-22T03:08:00.751Z,79.63
2017-10-22T03:10:26.578Z,79.60
2017-10-22T03:12:52.397Z,79.79
2017-10-22T03:15:18.247Z,79.44
2017-10-22T03:17:44.067Z,79.07
2017-10-22T03:20:09.906Z,78.39
2017-10-22T03:22:35.750Z,78.65
2017-10-22T03:25:01.568Z,78.96
2017-10-22T03:27:27.386Z,78.94
2017-10-22T03:29:53.272Z,78.58
2017-10-22T03:32:19.117Z,78.82
2017-10-22T03:34:44.939Z,78.29
2017-10-22T03:37:10.749Z,78.21
2017-10-22T03:39:36.533Z,77.93
2017-10-22T03:42:02.352Z,77.94
2017-10-22T03:44:28.173Z,78.38
2017-10-22T03:46:53.979Z,78.35
2017-10-22T03:49:19.794Z,78.79
2017-10-22T03:51:45.653Z,78.90
2017-10-22T03:54:11.476Z,78.85
2017-10-22T03:56:37.293Z,79.12
2017-10-22T03:59:03.109Z,79.40
2017-10-22T04:01:28.937Z,79.88
2017-10-22T04:03:54.755Z,80.10
2017-10-22T04:06:20.566Z,80.32
2017-10-22T04:08:46.394Z,100.00
2017-10-22T04:11:12.169Z,100.00
2017-10-22T04:13:38.012Z,100.00
2017-10-22T04:16:03.835Z,100.00
2017-10-22T04:18:29.623Z,100.00
2017-10-22T04:20:55.433Z,100.00
2017-10-22T04:23:21.226Z,100.00
2017-10-22T04:25:47.045Z,100.00
2017-10-22T04:28:12.855Z,100.00
2017-10-22T04:30:38.688Z,100.00
2017-10-22T04:33:04.529Z,100.00
2017-10-22T04:35:30.343Z,100.00
2017-10-22T04:37:56.165Z,100.00
2017-10-22T04:40:21.961Z,100.00
2017-10-22T04:42:47.768Z,100.00
2017-10-22T04:45:13.563Z,100.00
2017-10-22T04:47:39.354Z,100.00
2017-10-22T04:50:05.162Z,100.00
2017-10-22T04:52:30.968Z,100.00
2017-10-22T04:54:56.781Z,100.00
2017-10-22T04:57:22.577Z,100.00
2017-10-22T04:59:48.397Z,100.00
2017-10-22T05:02:14.194Z,100.00
2017-10-22T05:04:40.057Z,100.00
2017-10-22T05:07:05.916Z,100.00
2017-10-22T05:09:31.737Z,100.00
2017-10-22T05:11:57.553Z,100.00
2017-10-22T05:14:23.372Z,100.00
2017-10-22T05:16:49.314Z,100.00
2017-10-22T05:19:15.117Z,100.00
2017-10-22T05:21:40.907Z,100.00
2017-10-22T05:24:06.750Z,100.00
2017-10-22T05:26:32.566Z,100.00
2017-10-22T05:28:58.383Z,100.00
2017-10-22T05:31:24.212Z,100.00
2017-10-22T05:33:50.065Z,100.00
2017-10-22T05:36:15.890Z,100.00
2017-10-22T05:38:41.711Z,100.00
2017-10-22T05:41:07.758Z,100.00
2017-10-22T05:43:33.592Z,100.00
2017-10-22T05:45:59.413Z,100.00
2017-10-22T05:48:25.324Z,100.00
2017-10-22T05:50:51.116Z,100.00
2017-10-22T05:53:16.961Z,100.00
2017-10-22T05:55:42.770Z,100.00
2017-10-22T05:58:08.570Z,100.00
2017-10-22T06:00:34.421Z,100.00
2017-10-22T06:03:00.241Z,100.00
2017-10-22T06:05:26.052Z,100.00
2017-10-22T06:07:51.931Z,100.00
2017-10-22T06:10:17.763Z,100.00
2017-10-22T06:12:43.557Z,100.00
2017-10-22T06:15:09.357Z,100.00
2017-10-22T06:17:40.114Z,100.00
2017-10-22T06:20:05.963Z,100.00
2017-10-22T06:22:32.102Z,100.00
2017-10-22T06:24:57.910Z,100.00
2017-10-22T06:27:23.747Z,100.00
2017-10-22T06:29:49.567Z,100.00
2017-10-22T06:32:15.373Z,100.00
2017-10-22T06:34:41.199Z,100.00
2017-10-22T06:37:07.069Z,100.00
2017-10-22T06:39:32.931Z,100.00
2017-10-22T06:41:58.772Z,100.00
2017-10-22T06:44:24.597Z,100.00
2017-10-22T06:46:50.802Z,100.00
2017-10-22T06:49:16.779Z,100.00
2017-10-22T06:51:42.602Z,100.00
2017-10-22T06:54:08.462Z,100.00
2017-10-22T06:56:34.306Z,100.00
2017-10-22T06:59:00.184Z,100.00
2017-10-22T07:01:26.015Z,100.00
2017-10-22T07:03:51.870Z,100.00
2017-10-22T07:06:17.796Z,100.00
2017-10-22T07:08:43.669Z,100.00
2017-10-22T07:11:09.540Z,100.00
2017-10-22T07:13:35.437Z,100.00
2017-10-22T07:16:01.344Z,100.00
2017-10-22T07:18:27.184Z,100.00
2017-10-22T07:20:53.013Z,100.00
2017-10-22T07:23:18.952Z,100.00
2017-10-22T07:25:45.371Z,100.00
2017-10-22T07:28:11.273Z,100.00
2017-10-22T07:30:37.086Z,100.00
2017-10-22T07:33:03.280Z,100.00
2017-10-22T07:35:29.145Z,100.00
2017-10-22T07:37:55.025Z,100.00
2017-10-22T07:40:20.939Z,100.00
2017-10-22T07:42:46.821Z,100.00
2017-10-22T07:45:12.670Z,100.00
2017-10-22T07:47:38.569Z,100.00
2017-10-22T07:50:04.986Z,100.00
2017-10-22T07:52:30.861Z,100.00
2017-10-22T07:54:56.722Z,100.00
2017-10-22T07:57:22.574Z,100.00
2017-10-22T07:59:48.406Z,100.00
2017-10-22T08:02:19.220Z,100.00
2017-10-22T08:04:45.447Z,100.00
2017-10-22T08:07:11.460Z,100.00
2017-10-22T08:09:37.378Z,100.00
2017-10-22T08:12:04.298Z,100.00
2017-10-22T08:14:30.178Z,100.00
2017-10-22T08:16:56.342Z,100.00
2017-10-22T08:19:22.247Z,100.00
2017-10-22T08:21:48.172Z,100.00
2017-10-22T08:24:15.829Z,100.00
2017-10-22T08:26:41.652Z,100.00
2017-10-22T08:29:07.518Z,100.00
2017-10-22T08:31:33.549Z,100.00
2017-10-22T08:33:59.507Z,100.00
2017-10-22T08:36:25.331Z,100.00
2017-10-22T08:38:51.804Z,100.00
2017-10-22T08:41:18.246Z,100.00
2017-10-22T08:43:44.351Z,100.00
2017-10-22T08:46:13.052Z,100.00
2017-10-22T08:48:38.893Z,100.00
2017-10-22T08:51:04.843Z,100.00
2017-10-22T08:53:30.781Z,100.00
2017-10-22T08:55:58.100Z,100.00
2017-10-22T08:58:24.094Z,100.00
2017-10-22T09:00:50.217Z,100.00
2017-10-22T09:03:16.134Z,100.00
2017-10-22T09:05:42.102Z,100.00
2017-10-22T09:08:07.931Z,100.00
2017-10-22T09:10:33.809Z,100.00
2017-10-22T09:12:59.797Z,100.00
2017-10-22T09:15:25.737Z,100.00
2017-10-22T09:17:51.958Z,100.00
2017-10-22T09:20:17.803Z,100.00
2017-10-22T09:22:43.917Z,100.00
2017-10-22T09:25:10.257Z,100.00
2017-10-22T09:27:36.129Z,100.00
2017-10-22T09:30:01.960Z,100.00
2017-10-22T09:32:27.865Z,100.00
2017-10-22T09:34:53.665Z,100.00
2017-10-22T09:37:19.467Z,100.00
2017-10-22T09:39:45.347Z,100.00
2017-10-22T09:42:11.198Z,100.00
2017-10-22T09:44:37.090Z,100.00
2017-10-22T09:47:02.989Z,100.00
2017-10-22T09:49:29.794Z,100.00
2017-10-22T09:51:55.691Z,100.00
2017-10-22T09:54:21.544Z,100.00
2017-10-22T09:56:47.459Z,100.00
2017-10-22T09:59:13.354Z,100.00
2017-10-22T10:01:39.304Z,100.00
2017-10-22T10:04:05.180Z,100.00
2017-10-22T10:06:31.065Z,100.00
2017-10-22T10:08:57.023Z,100.00
2017-10-22T10:11:22.909Z,100.00
2017-10-22T10:13:48.799Z,100.00
2017-10-22T10:16:14.694Z,100.00
2017-10-22T10:18:40.652Z,100.00
2017-10-22T10:21:06.534Z,100.00
2017-10-22T10:23:32.445Z,100.00
2017-10-22T10:25:58.325Z,100.00
2017-10-22T10:28:24.197Z,100.00
2017-10-22T10:30:50.107Z,100.00
2017-10-22T10:33:16.031Z,100.00
2017-10-22T10:35:41.975Z,100.00
2017-10-22T10:38:07.984Z,100.00
2017-10-22T10:40:33.852Z,100.00
2017-10-22T10:42:59.738Z,100.00
2017-10-22T10:45:25.590Z,100.00
2017-10-22T10:47:51.459Z,100.00
2017-10-22T10:50:17.365Z,100.00
2017-10-22T10:52:43.180Z,100.00
2017-10-22T10:55:09.037Z,100.00
2017-10-22T10:57:34.893Z,100.00
2017-10-22T11:00:00.758Z,100.00
2017-10-22T11:02:26.801Z,100.00
2017-10-22T11:04:52.699Z,100.00
2017-10-22T11:07:18.637Z,100.00
2017-10-22T11:09:44.484Z,100.00
2017-10-22T11:12:10.849Z,100.00
2017-10-22T11:14:36.709Z,100.00
2017-10-22T11:17:02.617Z,100.00
2017-10-22T11:19:28.477Z,100.00
2017-10-22T11:21:54.305Z,100.00
2017-10-22T11:24:20.138Z,100.00
2017-10-22T11:26:46.005Z,100.00
2017-10-22T11:29:11.892Z,100.00
2017-10-22T11:31:37.758Z,100.00
2017-10-22T11:34:03.615Z,100.00
2017-10-22T11:36:29.442Z,100.00
2017-10-22T11:38:55.242Z,100.00
2017-10-22T11:41:21.059Z,100.00
2017-10-22T11:43:46.885Z,100.00
2017-10-22T11:46:12.691Z,100.00
2017-10-22T11:48:38.569Z,100.00
2017-10-22T11:51:04.471Z,100.00
2017-10-22T11:53:30.293Z,100.00
2017-10-22T11:55:56.097Z,100.00
2017-10-22T11:58:21.923Z,100.00
2017-10-22T12:00:47.722Z,100.00
2017-10-22T12:03:13.539Z,100.00
2017-10-22T12:05:39.384Z,100.00
2017-10-22T12:08:05.209Z,100.00
2017-10-22T12:10:31.058Z,100.00
2017-10-22T12:12:56.939Z,100.00
2017-10-22T12:15:22.799Z,100.00
2017-10-22T12:17:48.697Z,100.00
2017-10-22T12:20:14.560Z,100.00
2017-10-22T12:22:40.391Z,100.00
2017-10-22T12:25:06.223Z,100.00
2017-10-22T12:27:32.108Z,100.00
2017-10-22T12:29:57.971Z,100.00
2017-10-22T12:32:23.810Z,100.00
2017-10-22T12:34:49.681Z,100.00
2017-10-22T12:37:15.510Z,100.00
2017-10-22T12:39:41.334Z,100.00
2017-10-22T12:42:07.131Z,100.00
2017-10-22T12:44:32.965Z,100.00
2017-10-22T12:46:58.789Z,100.00
2017-10-22T12:49:24.617Z,100.00
2017-10-22T12:51:50.445Z,100.00
2017-10-22T12:54:16.245Z,100.00
2017-10-22T12:56:42.102Z,100.00
2017-10-22T12:59:07.986Z,100.00
2017-10-22T13:01:33.843Z,100.00
2017-10-22T13:03:59.658Z,100.00
2017-10-22T13:06:25.473Z,100.00
2017-10-22T13:08:51.313Z,100.00
2017-10-22T13:11:17.239Z,100.00
2017-10-22T13:13:43.042Z,100.00
2017-10-22T13:16:09.236Z,100.00
2017-10-22T13:18:35.050Z,100.00
2017-10-22T13:21:01.002Z,100.00
2017-10-22T13:23:26.862Z,100.00
2017-10-22T13:25:52.713Z,100.00
2017-10-22T13:28:18.598Z,100.00
2017-10-22T13:30:44.447Z,100.00
2017-10-22T13:33:10.264Z,100.00
2017-10-22T13:35:36.145Z,100.00
2017-10-22T13:38:01.979Z,100.00
2017-10-22T13:40:27.879Z,100.00
2017-10-22T13:42:53.747Z,100.00
2017-10-22T13:45:19.569Z,100.00
2017-10-22T13:47:45.363Z,100.00
2017-10-22T13:50:11.191Z,100.00
2017-10-22T13:52:37.002Z,100.00
2017-10-22T13:55:02.881Z,100.00
2017-10-22T13:57:28.717Z,100.00
2017-10-22T13:59:54.579Z,100.00
2017-10-22T14:02:20.401Z,100.00
2017-10-22T14:04:46.206Z,100.00
2017-10-22T14:07:12.022Z,100.00
2017-10-22T14:09:37.852Z,100.00
2017-10-22T14:12:04.085Z,100.00
2017-10-22T14:14:29.997Z,100.00
2017-10-22T14:16:55.842Z,100.00
2017-10-22T14:19:21.687Z,100.00
2017-10-22T14:21:47.516Z,100.00
2017-10-22T14:24:13.406Z,100.00
2017-10-22T14:26:39.245Z,100.00
2017-10-22T14:29:05.093Z,100.00
2017-10-22T14:31:30.944Z,100.00
2017-10-22T14:33:56.790Z,100.00
2017-10-22T14:36:57.652Z,77.19
2017-10-22T14:39:25.111Z,76.56
2017-10-22T14:41:52.524Z,76.62
2017-10-22T14:44:19.989Z,76.72
2017-10-22T14:46:47.399Z,77.19
2017-10-22T14:49:14.860Z,77.47
2017-10-22T14:51:42.254Z,77.46
2017-10-22T14:54:09.680Z,78.12
2017-10-22T14:56:37.198Z,78.49
2017-10-22T14:59:04.637Z,78.27
2017-10-22T15:01:32.097Z,78.65
2017-10-22T15:03:59.482Z,79.08
2017-10-22T15:06:26.917Z,79.43
2017-10-22T15:08:54.315Z,79.34
2017-10-22T15:11:21.782Z,79.56
2017-10-22T15:13:49.206Z,79.87
2017-10-22T15:16:16.613Z,80.07
2017-10-22T15:18:44.045Z,80.12
2017-10-22T15:21:11.491Z,80.35
2017-10-22T15:23:38.940Z,80.63
2017-10-22T15:26:06.403Z,80.96
2017-10-22T15:28:33.856Z,80.90
2017-10-22T15:31:01.268Z,80.55
2017-10-22T15:33:28.871Z,80.61
2017-10-22T15:35:56.386Z,80.63
2017-10-22T15:38:23.813Z,80.45
2017-10-22T15:40:51.238Z,80.14
2017-10-22T15:43:18.793Z,79.92
2017-10-22T15:45:46.262Z,80.01
2017-10-22T15:48:13.693Z,79.94
2017-10-22T15:50:41.174Z,80.05
2017-10-22T15:53:08.582Z,79.82
2017-10-22T15:55:35.994Z,79.81
2017-10-22T15:58:03.419Z,79.92
2017-10-22T16:00:30.881Z,80.53
2017-10-22T16:02:58.314Z,79.87
2017-10-22T16:05:25.825Z,79.41
2017-10-22T16:07:53.223Z,79.48
2017-10-22T16:10:20.646Z,79.28
2017-10-22T16:12:48.111Z,79.39
2017-10-22T16:15:15.546Z,78.95
2017-10-22T16:17:43.049Z,78.73
2017-10-22T16:20:10.491Z,78.61
2017-10-22T16:22:37.893Z,79.15
2017-10-22T16:25:05.337Z,78.98
2017-10-22T16:27:32.769Z,79.19
2017-10-22T16:30:00.186Z,79.71
2017-10-22T16:32:27.607Z,79.08
2017-10-22T16:34:55.116Z,79.46
2017-10-22T16:37:22.540Z,79.10
2017-10-22T16:39:49.991Z,79.42
2017-10-22T16:42:17.420Z,79.74
2017-10-22T16:44:44.816Z,79.78
2017-10-22T16:47:12.253Z,79.24
2017-10-22T16:49:39.644Z,79.44
2017-10-22T16:52:07.071Z,79.61
2017-10-22T16:54:34.485Z,79.39
2017-10-22T16:57:01.897Z,79.46
2017-10-22T16:59:29.405Z,79.97
2017-10-22T17:01:56.814Z,79.64
2017-10-22T17:04:24.241Z,79.40
2017-10-22T17:06:51.644Z,79.76
2017-10-22T17:09:19.149Z,79.94
2017-10-22T17:11:46.919Z,79.38
2017-10-22T17:14:14.644Z,79.26
2017-10-22T17:16:42.815Z,79.12
2017-10-22T17:19:10.305Z,79.13
2017-10-22T17:21:37.733Z,78.53
2017-10-22T17:24:05.204Z,78.36
2017-10-22T17:26:32.628Z,78.26
2017-10-22T17:29:00.063Z,78.14
2017-10-22T17:31:27.488Z,78.30
2017-10-22T17:33:54.923Z,78.70
2017-10-22T17:36:22.384Z,78.51
2017-10-22T17:38:49.779Z,78.50
2017-10-22T17:41:17.217Z,78.24
2017-10-22T17:43:54.581Z,78.26
2017-10-22T17:46:22.085Z,78.42
2017-10-22T17:48:49.483Z,78.58
2017-10-22T17:51:16.905Z,78.69
2017-10-22T17:53:44.421Z,78.31
2017-10-22T17:56:11.854Z,78.60
2017-10-22T17:58:39.257Z,78.31
2017-10-22T18:01:06.947Z,78.62
2017-10-22T18:03:34.352Z,78.48
2017-10-22T18:06:01.869Z,78.28
2017-10-22T18:08:29.412Z,78.00
2017-10-22T18:10:56.832Z,78.01
2017-10-22T18:13:24.231Z,78.21
2017-10-22T18:15:51.678Z,77.59
2017-10-22T18:18:19.114Z,77.05
2017-10-22T18:20:46.540Z,76.91
2017-10-22T18:23:13.996Z,76.65
2017-10-22T18:25:41.397Z,76.58
2017-10-22T18:28:08.805Z,76.67
2017-10-22T18:30:36.204Z,76.82
2017-10-22T18:33:03.616Z,76.37
2017-10-22T18:35:31.047Z,76.16
2017-10-22T18:37:58.425Z,75.97
2017-10-22T18:40:25.972Z,75.97
2017-10-22T18:42:53.378Z,76.08
2017-10-22T18:45:20.805Z,76.14
2017-10-22T18:47:48.278Z,76.69
2017-10-22T18:50:15.768Z,76.58
2017-10-22T18:52:43.187Z,77.00
2017-10-22T18:55:10.609Z,77.06
2017-10-22T18:57:38.032Z,77.18
2017-10-22T19:00:05.477Z,77.01
2017-10-22T19:02:32.876Z,77.08
2017-10-22T19:05:00.290Z,76.94
2017-10-22T19:07:27.711Z,77.20
2017-10-22T19:09:55.236Z,77.12
2017-10-22T19:12:22.844Z,77.30
2017-10-22T19:14:50.250Z,77.12
2017-10-22T19:17:18.219Z,77.18
2017-10-22T19:19:45.649Z,76.89
2017-10-22T19:22:13.083Z,77.30
2017-10-22T19:24:40.555Z,76.84
2017-10-22T19:27:07.969Z,76.90
2017-10-22T19:29:35.422Z,77.08
2017-10-22T19:32:02.822Z,76.96
2017-10-22T19:34:30.343Z,77.13
2017-10-22T19:36:57.827Z,77.21
2017-10-22T19:39:25.398Z,77.30
2017-10-22T19:41:52.851Z,77.27
2017-10-22T19:44:20.257Z,77.27
2017-10-22T19:46:47.729Z,77.55
2017-10-22T19:49:15.134Z,77.52
2017-10-22T19:51:42.597Z,77.81
2017-10-22T19:54:09.987Z,77.66
2017-10-22T19:56:37.401Z,77.90
2017-10-22T19:59:04.900Z,78.00
2017-10-22T20:01:32.306Z,78.12
2017-10-22T20:03:59.725Z,77.95
2017-10-22T20:06:27.159Z,78.17
2017-10-22T20:08:54.568Z,78.16
2017-10-22T20:11:22.153Z,78.19
2017-10-22T20:13:49.623Z,78.19
2017-10-22T20:16:17.114Z,78.43
2017-10-22T20:18:44.612Z,78.11
2017-10-22T20:21:13.076Z,78.05
2017-10-22T20:23:40.670Z,78.42
2017-10-22T20:26:08.074Z,77.99
2017-10-22T20:28:35.771Z,77.96
2017-10-22T20:31:03.226Z,77.99
2017-10-22T20:33:30.642Z,77.89
2017-10-22T20:35:58.052Z,78.18
2017-10-22T20:38:25.493Z,78.05
2017-10-22T20:40:52.913Z,78.10
2017-10-22T20:43:20.306Z,78.47
2017-10-22T20:45:47.733Z,78.68
2017-10-22T20:48:15.123Z,78.66
2017-10-22T20:50:42.853Z,78.73
2017-10-22T20:53:10.266Z,78.50
2017-10-22T20:55:37.707Z,78.82
2017-10-22T20:58:05.118Z,78.82
2017-10-22T21:00:32.525Z,78.90
2017-10-22T21:02:59.935Z,79.23
2017-10-22T21:05:27.340Z,79.01
2017-10-22T21:07:54.754Z,79.23
2017-10-22T21:10:22.155Z,78.93
2017-10-22T21:12:50.287Z,78.79
2017-10-22T21:15:17.688Z,78.86
2017-10-22T21:17:45.088Z,79.23
2017-10-22T21:20:12.519Z,78.98
2017-10-22T21:22:39.918Z,79.08
2017-10-22T21:25:07.322Z,78.93
2017-10-22T21:27:34.740Z,79.09
2017-10-22T21:30:02.138Z,79.14
2017-10-22T21:32:29.545Z,78.92
2017-10-22T21:34:56.953Z,79.21
2017-10-22T21:37:24.350Z,79.33
2017-10-22T21:39:51.757Z,79.12
2017-10-22T21:42:19.164Z,79.03
2017-10-22T21:44:46.762Z,78.83
2017-10-22T21:47:14.179Z,79.03
2017-10-22T21:49:41.580Z,79.18
2017-10-22T21:52:08.983Z,79.08
2017-10-22T21:54:36.422Z,79.24
2017-10-22T21:57:03.819Z,79.50
2017-10-22T21:59:31.672Z,79.68
2017-10-22T22:01:59.098Z,79.90
2017-10-22T22:04:26.551Z,79.73
2017-10-22T22:06:53.962Z,79.65
2017-10-22T22:09:21.376Z,79.18
2017-10-22T22:11:48.799Z,79.53
2017-10-22T22:14:16.198Z,79.37
2017-10-22T22:16:43.647Z,79.49
2017-10-22T22:19:11.029Z,80.00
2017-10-22T22:21:38.419Z,80.18
2017-10-22T22:24:05.835Z,80.48
2017-10-22T22:26:33.231Z,80.11
2017-10-22T22:29:00.673Z,80.07
2017-10-22T22:31:28.089Z,80.16
2017-10-22T22:33:55.521Z,80.07
2017-10-22T22:36:22.939Z,80.04
2017-10-22T22:38:50.330Z,80.26
2017-10-22T22:41:17.741Z,80.41
2017-10-22T22:43:45.161Z,80.12
2017-10-22T22:46:12.553Z,80.03
2017-10-22T22:48:40.029Z,79.72
2017-10-22T22:53:41.263Z,80.12
2017-10-22T22:56:08.671Z,80.41
2017-10-22T22:58:36.055Z,80.59
2017-10-22T23:01:03.483Z,80.43
2017-10-22T23:03:30.919Z,80.09
2017-10-22T23:05:58.343Z,80.02
2017-10-22T23:08:25.738Z,80.01
2017-10-22T23:10:53.143Z,80.15
2017-10-22T23:13:20.549Z,80.16
2017-10-22T23:15:47.949Z,80.33
2017-10-22T23:18:15.361Z,80.27
2017-10-22T23:20:42.778Z,80.25
2017-10-22T23:23:10.202Z,80.01
2017-10-22T23:25:37.610Z,80.19
2017-10-22T23:28:05.008Z,79.89
2017-10-22T23:30:32.420Z,80.09
2017-10-22T23:32:59.867Z,79.91
2017-10-22T23:35:27.271Z,79.97
2017-10-22T23:37:54.672Z,79.87
2017-10-22T23:40:22.070Z,79.74
2017-10-22T23:42:49.494Z,79.97
2017-10-22T23:45:16.908Z,80.05
2017-10-22T23:47:44.302Z,80.47
2017-10-22T23:50:11.725Z,80.37
2017-10-22T23:52:39.125Z,80.30
2017-10-22T23:55:06.540Z,80.19
2017-10-22T23:57:33.942Z,80.21
